Погода Кайбалына неделю

Республика Хакасия, Россия

15 - 21 июля
  • 15июля
    Сегодня
    +15°
    +32°
    Ясно и безоблачно
    ВремяПогодаТемператураВлажностьДавлениеВетер, м/сВероятность осадков
    01:00Практически безоблачно+18°C47 %732 мм0.5 м/с2 %
    04:00Ясно и безоблачно+16°C69 %733 мм0.0 м/с2 %
    07:00Ясно и безоблачно+20°C63 %733 мм0.1 м/с2 %
    10:00Ясно и безоблачно+26°C39 %734 мм0.2 м/с2 %
    13:00Ясно и безоблачно+29°C29 %733 мм1.8 м/с2 %
    16:00Практически безоблачно+32°C25 %733 мм2.6 м/с2 %
    19:00Ясно и безоблачно+30°C24 %733 мм2.6 м/с2 %
    22:00Ясно и безоблачно+23°C45 %734 мм1.6 м/с2 %
  • 16июля
    Вторник
    +17°
    +33°
    Облачно с прояснениями
    ВремяПогодаТемператураВлажностьДавлениеВетер, м/сВероятность осадков
    01:00Ясно и безоблачно+18°C62 %734 мм0.6 м/с2 %
    04:00Ясно и безоблачно+16°C75 %734 мм0.2 м/с2 %
    07:00Ясно и безоблачно+20°C67 %734 мм0.6 м/с2 %
    10:00Ясно и безоблачно+27°C39 %734 мм1.3 м/с2 %
    13:00Облачно с прояснениями+30°C28 %733 мм2.4 м/с2 %
    16:00Облачно с прояснениями+33°C24 %732 мм2.4 м/с2 %
    19:00Облачно с прояснениями+31°C27 %732 мм2.8 м/с2 %
    22:00Облачно с прояснениями+25°C43 %732 мм2.1 м/с2 %
  • 17июля
    Среда
    +16°
    +31°
    Пасмурно, сплошная облачность
    ВремяПогодаТемператураВлажностьДавлениеВетер, м/сВероятность осадков
    01:00Облачно с прояснениями+20°C57 %732 мм1.1 м/с4 %
    04:00Облачно с прояснениями+18°C65 %732 мм0.4 м/с11 %
    07:00Пасмурно, небольшой дождь+20°C66 %733 мм1.0 м/с33 %
    10:00Пасмурно, ливень+22°C83 %733 мм0.2 м/с46 %
    13:00Пасмурно, сплошная облачность+25°C45 %732 мм1.3 м/с20 %
    16:00Небольшая облачность+28°C34 %732 мм1.3 м/с14 %
    19:00Облачно с прояснениями+28°C33 %731 мм2.1 м/с12 %
    22:00Облачно с прояснениями+22°C57 %731 мм0.7 м/с19 %
  • 18июля
    Четверг
    +15°
    +34°
    Облачно с прояснениями
    ВремяПогодаТемператураВлажностьДавлениеВетер, м/сВероятность осадков
    01:00Небольшая облачность+18°C70 %731 мм0.2 м/с18 %
    04:00Облачно с прояснениями+16°C80 %731 мм0.2 м/с23 %
    07:00Облачно с прояснениями+19°C77 %731 мм0.4 м/с26 %
    10:00Облачно с прояснениями+26°C50 %731 мм0.7 м/с27 %
    13:00Облачно с прояснениями+30°C39 %730 мм2.0 м/с38 %
    16:00Небольшая облачность, возможен дождь с грозой+30°C58 %730 мм1.4 м/с51 %
    19:00Облачно с прояснениями+29°C46 %730 мм1.9 м/с47 %
    22:00Облачно с прояснениями+23°C71 %730 мм1.1 м/с26 %
  • 19июля
    Пятница
    +17°
    +35°
    Практически безоблачно
    ВремяПогодаТемператураВлажностьДавлениеВетер, м/сВероятность осадков
    01:00Небольшая облачность+19°C81 %730 мм0.8 м/с11 %
    04:00Ясно и безоблачно+17°C91 %729 мм0.1 м/с7 %
    07:00Ясно и безоблачно+21°C77 %730 мм0.9 м/с8 %
    10:00Ясно и безоблачно+26°C53 %729 мм1.6 м/с17 %
    13:00Практически безоблачно+30°C39 %728 мм2.2 м/с28 %
    16:00Небольшая облачность+33°C32 %727 мм1.7 м/с38 %
    19:00Облачно с прояснениями+30°C30 %727 мм2.4 м/с47 %
    22:00Облачно с прояснениями+24°C51 %727 мм0.8 м/с14 %
Мы используем cookies
Соглашаюсь